aviador You're here:

LEAM Decoded Metar

ALMERIA in SPAIN
Report Time2018-01-20 05:00:00
UTC Time2018-01-20 05:08:50
Flight Rules vfr VFR
WindVRB at 01 kt
Visibility9999 m
Phenomena:N/A
Clouds:N/A
Expected CloudBase > 2,000 ft AGL from Temp-Dew spread
CeilingNone
Temp08°C (ISA -7)
Dew Point03°C (71% RH)
AAT6.1°C
QNH1023 hPa
Density Alt-991 ft
Elevation69 ft
Report Wrong Elevation
Raw Report
METAR LEAM 200500Z VRB01KT CAVOK 08/03 Q1023=

Extra information for LEAM:More info

Metar Taf Metar & Taf Last 4 Metars F.Rules Stats Wind Profile Meteogram Temp Stats Airport Information Weather charts Add Link Nearby VenuesMetar ALERT Operation Metar Decoded Social comments